sensor_id;sensor_type;location;lat;lon;timestamp;pressure;altitude;pressure_sealevel;temperature;humidity
7480;BME280;3781;42.272;22.658;2022-10-16T00:00:38;95197.97;;;6.70;100.00
7480;BME280;3781;42.272;22.658;2022-10-16T00:03:06;95188.91;;;6.77;100.00
7480;BME280;3781;42.272;22.658;2022-10-16T00:05:37;95196.53;;;6.93;100.00
7480;BME280;3781;42.272;22.658;2022-10-16T00:08:05;95173.50;;;6.63;100.00
7480;BME280;3781;42.272;22.658;2022-10-16T00:10:32;95206.38;;;6.73;100.00
7480;BME280;3781;42.272;22.658;2022-10-16T00:12:58;95210.28;;;6.52;100.00
7480;BME280;3781;42.272;22.658;2022-10-16T00:15:25;95215.13;;;6.71;100.00
7480;BME280;3781;42.272;22.658;2022-10-16T00:17:53;95204.22;;;6.80;100.00
7480;BME280;3781;42.272;22.658;2022-10-16T00:20:20;95213.16;;;6.89;100.00
7480;BME280;3781;42.272;22.658;2022-10-16T00:22:47;95208.84;;;7.02;100.00
7480;BME280;3781;42.272;22.658;2022-10-16T00:25:14;95211.16;;;7.06;100.00
7480;BME280;3781;42.272;22.658;2022-10-16T00:27:41;95205.44;;;6.74;100.00
7480;BME280;3781;42.272;22.658;2022-10-16T00:30:08;95223.03;;;6.68;100.00
7480;BME280;3781;42.272;22.658;2022-10-16T00:32:35;95230.00;;;6.53;100.00
7480;BME280;3781;42.272;22.658;2022-10-16T00:35:04;95233.25;;;6.43;100.00
7480;BME280;3781;42.272;22.658;2022-10-16T00:37:31;95229.28;;;6.51;100.00
7480;BME280;3781;42.272;22.658;2022-10-16T00:39:57;95231.50;;;6.43;100.00
7480;BME280;3781;42.272;22.658;2022-10-16T00:42:24;95229.44;;;6.48;100.00
7480;BME280;3781;42.272;22.658;2022-10-16T00:44:53;95236.94;;;6.25;100.00
7480;BME280;3781;42.272;22.658;2022-10-16T00:47:24;95231.06;;;6.08;100.00
7480;BME280;3781;42.272;22.658;2022-10-16T00:49:57;95188.84;;;5.81;100.00
7480;BME280;3781;42.272;22.658;2022-10-16T00:52:26;95222.94;;;6.15;100.00
7480;BME280;3781;42.272;22.658;2022-10-16T00:54:54;95227.28;;;6.28;100.00
7480;BME280;3781;42.272;22.658;2022-10-16T00:57:22;95224.94;;;6.52;100.00
7480;BME280;3781;42.272;22.658;2022-10-16T00:59:49;95223.16;;;6.66;100.00
7480;BME280;3781;42.272;22.658;2022-10-16T01:02:17;95212.53;;;6.85;100.00
7480;BME280;3781;42.272;22.658;2022-10-16T01:04:46;95220.38;;;6.96;100.00
7480;BME280;3781;42.272;22.658;2022-10-16T01:07:20;95219.13;;;6.89;100.00
7480;BME280;3781;42.272;22.658;2022-10-16T01:10:00;95228.22;;;6.68;100.00
7480;BME280;3781;42.272;22.658;2022-10-16T01:12:36;95227.34;;;6.41;100.00
7480;BME280;3781;42.272;22.658;2022-10-16T01:15:10;95229.47;;;6.20;100.00
7480;BME280;3781;42.272;22.658;2022-10-16T01:17:42;95230.47;;;5.89;100.00
7480;BME280;3781;42.272;22.658;2022-10-16T01:20:15;95228.78;;;5.74;100.00
7480;BME280;3781;42.272;22.658;2022-10-16T01:22:55;95224.94;;;5.67;100.00
7480;BME280;3781;42.272;22.658;2022-10-16T01:25:34;95203.91;;;5.45;100.00
7480;BME280;3781;42.272;22.658;2022-10-16T01:28:06;95224.78;;;5.55;100.00
7480;BME280;3781;42.272;22.658;2022-10-16T01:30:38;95219.78;;;5.67;100.00
7480;BME280;3781;42.272;22.658;2022-10-16T01:33:10;95224.56;;;5.73;100.00
7480;BME280;3781;42.272;22.658;2022-10-16T01:35:43;95223.25;;;5.66;100.00
7480;BME280;3781;42.272;22.658;2022-10-16T01:38:15;95223.63;;;5.60;100.00
7480;BME280;3781;42.272;22.658;2022-10-16T01:40:49;95225.94;;;5.65;100.00
7480;BME280;3781;42.272;22.658;2022-10-16T01:43:22;95217.09;;;5.69;100.00
7480;BME280;3781;42.272;22.658;2022-10-16T01:45:52;95230.91;;;5.82;100.00
7480;BME280;3781;42.272;22.658;2022-10-16T01:48:20;95231.59;;;5.99;100.00
7480;BME280;3781;42.272;22.658;2022-10-16T01:50:54;95231.13;;;6.07;100.00
7480;BME280;3781;42.272;22.658;2022-10-16T01:53:22;95237.22;;;6.06;100.00
7480;BME280;3781;42.272;22.658;2022-10-16T01:55:52;95214.28;;;5.87;100.00
7480;BME280;3781;42.272;22.658;2022-10-16T01:58:23;95241.81;;;6.01;100.00
7480;BME280;3781;42.272;22.658;2022-10-16T02:00:53;95246.34;;;6.12;100.00
7480;BME280;3781;42.272;22.658;2022-10-16T02:03:21;95258.59;;;6.08;100.00
7480;BME280;3781;42.272;22.658;2022-10-16T02:05:51;95258.88;;;6.03;100.00
7480;BME280;3781;42.272;22.658;2022-10-16T02:08:20;95262.53;;;5.99;100.00
7480;BME280;3781;42.272;22.658;2022-10-16T02:10:49;95265.75;;;6.03;100.00
7480;BME280;3781;42.272;22.658;2022-10-16T02:13:18;95270.66;;;6.07;100.00
7480;BME280;3781;42.272;22.658;2022-10-16T02:15:49;95270.72;;;5.92;100.00
7480;BME280;3781;42.272;22.658;2022-10-16T02:18:16;95278.59;;;6.04;100.00
7480;BME280;3781;42.272;22.658;2022-10-16T02:20:47;95273.41;;;5.90;100.00
7480;BME280;3781;42.272;22.658;2022-10-16T02:23:19;95282.41;;;5.68;100.00
7480;BME280;3781;42.272;22.658;2022-10-16T02:25:50;95272.66;;;5.29;100.00
7480;BME280;3781;42.272;22.658;2022-10-16T02:28:23;95274.72;;;5.38;100.00
7480;BME280;3781;42.272;22.658;2022-10-16T02:30:55;95259.34;;;5.37;100.00
7480;BME280;3781;42.272;22.658;2022-10-16T02:33:25;95269.91;;;5.32;100.00
7480;BME280;3781;42.272;22.658;2022-10-16T02:35:53;95252.78;;;5.31;100.00
7480;BME280;3781;42.272;22.658;2022-10-16T02:38:21;95278.97;;;5.39;100.00
7480;BME280;3781;42.272;22.658;2022-10-16T02:40:49;95283.56;;;5.48;100.00
7480;BME280;3781;42.272;22.658;2022-10-16T02:43:16;95253.63;;;5.31;100.00
7480;BME280;3781;42.272;22.658;2022-10-16T02:45:43;95284.50;;;5.47;100.00
7480;BME280;3781;42.272;22.658;2022-10-16T02:48:11;95288.94;;;5.59;100.00
7480;BME280;3781;42.272;22.658;2022-10-16T02:50:38;95294.28;;;5.56;100.00
7480;BME280;3781;42.272;22.658;2022-10-16T02:53:05;95286.38;;;5.14;100.00
7480;BME280;3781;42.272;22.658;2022-10-16T02:55:31;95278.66;;;5.14;100.00
7480;BME280;3781;42.272;22.658;2022-10-16T02:57:58;95279.25;;;5.19;100.00
7480;BME280;3781;42.272;22.658;2022-10-16T03:00:25;95275.16;;;5.60;100.00
7480;BME280;3781;42.272;22.658;2022-10-16T03:02:52;95277.81;;;5.88;100.00
7480;BME280;3781;42.272;22.658;2022-10-16T03:05:20;95254.06;;;5.97;100.00
7480;BME280;3781;42.272;22.658;2022-10-16T03:07:47;95252.50;;;6.09;100.00
7480;BME280;3781;42.272;22.658;2022-10-16T03:10:14;95274.09;;;5.78;100.00
7480;BME280;3781;42.272;22.658;2022-10-16T03:12:40;95273.25;;;5.48;100.00
7480;BME280;3781;42.272;22.658;2022-10-16T03:15:08;95279.00;;;5.53;100.00
7480;BME280;3781;42.272;22.658;2022-10-16T03:17:35;95271.47;;;5.64;100.00
7480;BME280;3781;42.272;22.658;2022-10-16T03:20:02;95254.69;;;5.43;100.00
7480;BME280;3781;42.272;22.658;2022-10-16T03:22:30;95273.66;;;5.56;100.00
7480;BME280;3781;42.272;22.658;2022-10-16T03:24:57;95270.59;;;5.79;100.00
7480;BME280;3781;42.272;22.658;2022-10-16T03:27:24;95232.81;;;5.64;100.00
7480;BME280;3781;42.272;22.658;2022-10-16T03:29:51;95265.28;;;5.96;100.00
7480;BME280;3781;42.272;22.658;2022-10-16T03:32:17;95269.50;;;5.54;100.00
7480;BME280;3781;42.272;22.658;2022-10-16T03:34:45;95266.59;;;5.30;100.00
7480;BME280;3781;42.272;22.658;2022-10-16T03:37:12;95270.88;;;5.45;100.00
7480;BME280;3781;42.272;22.658;2022-10-16T03:39:40;95273.25;;;5.48;100.00
7480;BME280;3781;42.272;22.658;2022-10-16T03:42:07;95273.06;;;5.37;100.00
7480;BME280;3781;42.272;22.658;2022-10-16T03:44:34;95271.13;;;5.41;100.00
7480;BME280;3781;42.272;22.658;2022-10-16T03:47:00;95281.69;;;5.36;100.00
7480;BME280;3781;42.272;22.658;2022-10-16T03:49:27;95278.03;;;5.40;100.00
7480;BME280;3781;42.272;22.658;2022-10-16T03:51:54;95281.59;;;5.38;100.00
7480;BME280;3781;42.272;22.658;2022-10-16T03:54:21;95284.84;;;5.41;100.00
7480;BME280;3781;42.272;22.658;2022-10-16T03:56:49;95291.16;;;5.35;100.00
7480;BME280;3781;42.272;22.658;2022-10-16T03:59:16;95290.69;;;5.13;100.00
7480;BME280;3781;42.272;22.658;2022-10-16T04:01:43;95280.75;;;5.07;100.00
7480;BME280;3781;42.272;22.658;2022-10-16T04:04:10;95254.28;;;4.90;100.00
7480;BME280;3781;42.272;22.658;2022-10-16T04:06:36;95295.03;;;5.13;100.00
7480;BME280;3781;42.272;22.658;2022-10-16T04:09:03;95295.69;;;5.01;100.00
7480;BME280;3781;42.272;22.658;2022-10-16T04:11:30;95290.88;;;5.10;100.00
7480;BME280;3781;42.272;22.658;2022-10-16T04:13:58;95293.19;;;5.15;100.00
7480;BME280;3781;42.272;22.658;2022-10-16T04:16:25;95287.41;;;4.96;100.00
7480;BME280;3781;42.272;22.658;2022-10-16T04:18:52;95294.56;;;4.91;100.00
7480;BME280;3781;42.272;22.658;2022-10-16T04:21:19;95290.66;;;4.84;100.00
7480;BME280;3781;42.272;22.658;2022-10-16T04:23:45;95295.28;;;4.77;100.00
7480;BME280;3781;42.272;22.658;2022-10-16T04:26:12;95293.03;;;4.55;100.00
7480;BME280;3781;42.272;22.658;2022-10-16T04:28:39;95285.25;;;4.73;100.00
7480;BME280;3781;42.272;22.658;2022-10-16T04:31:07;95263.16;;;4.69;100.00
7480;BME280;3781;42.272;22.658;2022-10-16T04:33:34;95284.50;;;4.86;100.00
7480;BME280;3781;42.272;22.658;2022-10-16T04:36:02;95256.94;;;4.73;100.00
7480;BME280;3781;42.272;22.658;2022-10-16T04:38:29;95280.59;;;4.95;100.00
7480;BME280;3781;42.272;22.658;2022-10-16T04:40:56;95282.09;;;4.83;100.00
7480;BME280;3781;42.272;22.658;2022-10-16T04:43:23;95279.44;;;4.69;100.00
7480;BME280;3781;42.272;22.658;2022-10-16T04:45:49;95281.31;;;4.34;100.00
7480;BME280;3781;42.272;22.658;2022-10-16T04:48:18;95284.00;;;4.00;100.00
7480;BME280;3781;42.272;22.658;2022-10-16T04:50:45;95268.00;;;3.78;100.00
7480;BME280;3781;42.272;22.658;2022-10-16T04:53:12;95293.34;;;4.34;100.00
7480;BME280;3781;42.272;22.658;2022-10-16T04:55:39;95300.88;;;4.70;100.00
7480;BME280;3781;42.272;22.658;2022-10-16T04:58:06;95296.53;;;5.01;100.00
7480;BME280;3781;42.272;22.658;2022-10-16T05:00:33;95299.00;;;5.03;100.00
7480;BME280;3781;42.272;22.658;2022-10-16T05:03:00;95296.78;;;5.12;100.00
7480;BME280;3781;42.272;22.658;2022-10-16T05:05:32;95267.88;;;4.92;100.00
7480;BME280;3781;42.272;22.658;2022-10-16T05:07:59;95297.69;;;5.11;100.00
7480;BME280;3781;42.272;22.658;2022-10-16T05:10:26;95250.97;;;4.88;100.00
7480;BME280;3781;42.272;22.658;2022-10-16T05:12:53;95301.31;;;5.23;100.00
7480;BME280;3781;42.272;22.658;2022-10-16T05:15:20;95302.66;;;5.30;100.00
7480;BME280;3781;42.272;22.658;2022-10-16T05:17:47;95311.97;;;5.17;100.00
7480;BME280;3781;42.272;22.658;2022-10-16T05:20:13;95316.28;;;5.01;100.00
7480;BME280;3781;42.272;22.658;2022-10-16T05:22:42;95308.16;;;4.93;100.00
7480;BME280;3781;42.272;22.658;2022-10-16T05:25:08;95307.72;;;5.00;100.00
7480;BME280;3781;42.272;22.658;2022-10-16T05:27:35;95319.25;;;5.24;100.00
7480;BME280;3781;42.272;22.658;2022-10-16T05:30:02;95326.84;;;5.57;100.00
7480;BME280;3781;42.272;22.658;2022-10-16T05:32:29;95326.31;;;5.66;100.00
7480;BME280;3781;42.272;22.658;2022-10-16T05:34:56;95331.09;;;5.88;100.00
7480;BME280;3781;42.272;22.658;2022-10-16T06:04:57;95374.47;;;10.13;100.00
7480;BME280;3781;42.272;22.658;2022-10-16T06:07:24;95379.97;;;11.87;100.00
7480;BME280;3781;42.272;22.658;2022-10-16T06:09:52;95398.59;;;13.57;94.07
7480;BME280;3781;42.272;22.658;2022-10-16T06:12:19;95403.66;;;14.75;82.65
7480;BME280;3781;42.272;22.658;2022-10-16T06:14:46;95389.97;;;16.01;72.55
7480;BME280;3781;42.272;22.658;2022-10-16T06:17:14;95416.00;;;17.52;61.52
7480;BME280;3781;42.272;22.658;2022-10-16T06:19:41;95409.78;;;18.68;55.67
7480;BME280;3781;42.272;22.658;2022-10-16T06:22:09;95430.19;;;19.94;50.25
7480;BME280;3781;42.272;22.658;2022-10-16T06:24:36;95441.78;;;20.15;47.67
7480;BME280;3781;42.272;22.658;2022-10-16T06:27:03;95438.63;;;20.59;47.43
7480;BME280;3781;42.272;22.658;2022-10-16T06:29:30;95443.53;;;21.30;45.10
7480;BME280;3781;42.272;22.658;2022-10-16T06:31:57;95435.66;;;20.99;43.55
7480;BME280;3781;42.272;22.658;2022-10-16T06:34:24;95437.28;;;20.32;46.20
7480;BME280;3781;42.272;22.658;2022-10-16T06:36:51;95434.03;;;21.21;44.57
7480;BME280;3781;42.272;22.658;2022-10-16T06:39:19;95437.56;;;22.23;43.16
7480;BME280;3781;42.272;22.658;2022-10-16T06:41:46;95429.94;;;21.99;42.38
7480;BME280;3781;42.272;22.658;2022-10-16T06:44:12;95445.56;;;22.59;41.63
7480;BME280;3781;42.272;22.658;2022-10-16T06:46:39;95446.63;;;22.65;41.36
7480;BME280;3781;42.272;22.658;2022-10-16T06:49:06;95448.41;;;23.70;40.60
7480;BME280;3781;42.272;22.658;2022-10-16T06:51:32;95446.50;;;23.91;40.98
7480;BME280;3781;42.272;22.658;2022-10-16T06:54:01;95449.28;;;24.52;39.42
7480;BME280;3781;42.272;22.658;2022-10-16T06:56:30;95451.50;;;25.28;37.32
7480;BME280;3781;42.272;22.658;2022-10-16T06:58:58;95425.31;;;23.98;38.64
7480;BME280;3781;42.272;22.658;2022-10-16T07:01:25;95441.06;;;24.94;36.71
7480;BME280;3781;42.272;22.658;2022-10-16T07:03:52;95432.19;;;24.74;36.53
7480;BME280;3781;42.272;22.658;2022-10-16T07:06:20;95431.56;;;24.72;37.60
7480;BME280;3781;42.272;22.658;2022-10-16T07:08:48;95459.28;;;25.36;37.08
7480;BME280;3781;42.272;22.658;2022-10-16T07:11:17;95471.97;;;25.87;36.01
7480;BME280;3781;42.272;22.658;2022-10-16T07:13:47;95460.72;;;26.75;34.39
7480;BME280;3781;42.272;22.658;2022-10-16T07:16:15;95459.97;;;26.48;34.24
7480;BME280;3781;42.272;22.658;2022-10-16T07:18:43;95458.41;;;26.08;35.01
7480;BME280;3781;42.272;22.658;2022-10-16T07:21:13;95464.50;;;26.41;34.15
7480;BME280;3781;42.272;22.658;2022-10-16T07:23:40;95461.88;;;26.85;33.50
7480;BME280;3781;42.272;22.658;2022-10-16T07:26:07;95447.63;;;27.60;31.97
7480;BME280;3781;42.272;22.658;2022-10-16T07:28:34;95444.91;;;27.67;32.07
7480;BME280;3781;42.272;22.658;2022-10-16T07:31:03;95449.81;;;28.13;31.56
7480;BME280;3781;42.272;22.658;2022-10-16T07:33:30;95461.94;;;28.33;31.28
7480;BME280;3781;42.272;22.658;2022-10-16T07:35:57;95472.19;;;28.73;30.75
7480;BME280;3781;42.272;22.658;2022-10-16T07:38:24;95468.28;;;28.87;30.07
7480;BME280;3781;42.272;22.658;2022-10-16T07:40:56;95474.38;;;29.53;29.42
7480;BME280;3781;42.272;22.658;2022-10-16T07:43:24;95463.81;;;30.51;28.11
7480;BME280;3781;42.272;22.658;2022-10-16T07:45:51;95451.44;;;30.62;27.74
7480;BME280;3781;42.272;22.658;2022-10-16T07:48:20;95452.09;;;28.82;29.07
7480;BME280;3781;42.272;22.658;2022-10-16T07:50:47;95464.13;;;29.73;28.67
7480;BME280;3781;42.272;22.658;2022-10-16T07:53:14;95464.66;;;29.29;29.67
7480;BME280;3781;42.272;22.658;2022-10-16T07:55:40;95474.81;;;28.00;30.96
7480;BME280;3781;42.272;22.658;2022-10-16T07:58:07;95456.03;;;27.39;30.91
7480;BME280;3781;42.272;22.658;2022-10-16T08:00:35;95465.00;;;25.07;33.97
7480;BME280;3781;42.272;22.658;2022-10-16T08:03:03;95468.78;;;26.55;32.28
7480;BME280;3781;42.272;22.658;2022-10-16T08:05:32;95464.97;;;26.32;32.58
7480;BME280;3781;42.272;22.658;2022-10-16T08:08:00;95469.91;;;25.23;34.60
7480;BME280;3781;42.272;22.658;2022-10-16T08:10:28;95469.81;;;26.99;30.97
7480;BME280;3781;42.272;22.658;2022-10-16T08:12:55;95472.72;;;27.22;31.43
7480;BME280;3781;42.272;22.658;2022-10-16T08:15:22;95443.22;;;28.15;30.04
7480;BME280;3781;42.272;22.658;2022-10-16T08:17:57;95449.63;;;27.47;32.23
7480;BME280;3781;42.272;22.658;2022-10-16T08:20:24;95463.38;;;29.96;29.36
7480;BME280;3781;42.272;22.658;2022-10-16T08:22:53;95433.31;;;29.83;28.28
7480;BME280;3781;42.272;22.658;2022-10-16T08:25:21;95464.63;;;29.70;28.04
7480;BME280;3781;42.272;22.658;2022-10-16T08:27:48;95459.84;;;30.93;27.11
7480;BME280;3781;42.272;22.658;2022-10-16T08:30:16;95464.44;;;29.54;29.20
7480;BME280;3781;42.272;22.658;2022-10-16T08:32:43;95467.72;;;27.38;30.59
7480;BME280;3781;42.272;22.658;2022-10-16T08:35:11;95454.41;;;25.33;35.15
7480;BME280;3781;42.272;22.658;2022-10-16T08:37:39;95457.97;;;24.80;35.88
7480;BME280;3781;42.272;22.658;2022-10-16T08:40:16;95450.31;;;25.37;35.48
7480;BME280;3781;42.272;22.658;2022-10-16T08:42:57;95462.25;;;27.27;31.86
7480;BME280;3781;42.272;22.658;2022-10-16T08:45:42;95444.97;;;25.90;34.01
7480;BME280;3781;42.272;22.658;2022-10-16T08:48:18;95454.09;;;24.76;35.63
7480;BME280;3781;42.272;22.658;2022-10-16T08:50:49;95452.72;;;25.98;34.69
7480;BME280;3781;42.272;22.658;2022-10-16T08:53:26;95459.72;;;27.63;33.22
7480;BME280;3781;42.272;22.658;2022-10-16T08:55:58;95448.13;;;26.44;32.61
7480;BME280;3781;42.272;22.658;2022-10-16T08:58:27;95461.56;;;25.79;35.22
7480;BME280;3781;42.272;22.658;2022-10-16T09:00:55;95463.94;;;26.33;33.45
7480;BME280;3781;42.272;22.658;2022-10-16T09:03:35;95476.09;;;27.67;32.29
7480;BME280;3781;42.272;22.658;2022-10-16T09:06:26;95464.56;;;26.85;33.03
7480;BME280;3781;42.272;22.658;2022-10-16T09:09:09;95457.97;;;26.37;34.13
7480;BME280;3781;42.272;22.658;2022-10-16T09:11:47;95432.53;;;26.41;32.70
7480;BME280;3781;42.272;22.658;2022-10-16T09:14:34;95462.06;;;28.38;30.95
7480;BME280;3781;42.272;22.658;2022-10-16T09:17:15;95466.59;;;28.92;30.69
7480;BME280;3781;42.272;22.658;2022-10-16T09:19:50;95459.00;;;28.60;30.93
7480;BME280;3781;42.272;22.658;2022-10-16T09:22:18;95459.47;;;29.57;29.17
7480;BME280;3781;42.272;22.658;2022-10-16T09:24:48;95454.97;;;27.90;32.19
7480;BME280;3781;42.272;22.658;2022-10-16T09:27:16;95450.47;;;27.34;32.17
7480;BME280;3781;42.272;22.658;2022-10-16T09:29:43;95435.53;;;27.58;31.17
7480;BME280;3781;42.272;22.658;2022-10-16T09:32:12;95464.69;;;28.81;30.63
7480;BME280;3781;42.272;22.658;2022-10-16T09:34:42;95466.16;;;29.25;28.98
7480;BME280;3781;42.272;22.658;2022-10-16T09:37:13;95464.47;;;31.09;27.41
7480;BME280;3781;42.272;22.658;2022-10-16T09:39:44;95456.94;;;30.55;27.62
7480;BME280;3781;42.272;22.658;2022-10-16T09:42:16;95449.22;;;31.26;27.00
7480;BME280;3781;42.272;22.658;2022-10-16T09:44:47;95469.03;;;31.25;26.73
7480;BME280;3781;42.272;22.658;2022-10-16T09:47:17;95437.03;;;29.17;28.27
7480;BME280;3781;42.272;22.658;2022-10-16T09:49:52;95457.94;;;28.24;29.57
7480;BME280;3781;42.272;22.658;2022-10-16T09:52:21;95443.59;;;26.38;32.17
7480;BME280;3781;42.272;22.658;2022-10-16T09:54:50;95429.53;;;27.07;30.62
7480;BME280;3781;42.272;22.658;2022-10-16T09:57:20;95442.94;;;27.56;29.66
7480;BME280;3781;42.272;22.658;2022-10-16T09:59:47;95421.59;;;27.56;29.25
7480;BME280;3781;42.272;22.658;2022-10-16T10:02:16;95426.50;;;27.59;30.24
7480;BME280;3781;42.272;22.658;2022-10-16T10:04:48;95437.72;;;27.43;31.34
7480;BME280;3781;42.272;22.658;2022-10-16T10:07:23;95432.53;;;27.17;31.45
7480;BME280;3781;42.272;22.658;2022-10-16T10:09:51;95436.53;;;25.99;32.30
7480;BME280;3781;42.272;22.658;2022-10-16T10:12:21;95428.13;;;27.04;30.22
7480;BME280;3781;42.272;22.658;2022-10-16T10:14:50;95431.06;;;28.38;29.06
7480;BME280;3781;42.272;22.658;2022-10-16T10:17:19;95416.66;;;26.02;31.31
7480;BME280;3781;42.272;22.658;2022-10-16T10:19:49;95423.19;;;27.08;31.30
7480;BME280;3781;42.272;22.658;2022-10-16T10:22:18;95416.66;;;28.02;28.77
7480;BME280;3781;42.272;22.658;2022-10-16T10:24:55;95418.41;;;28.81;28.46
7480;BME280;3781;42.272;22.658;2022-10-16T10:27:30;95421.84;;;29.41;27.26
7480;BME280;3781;42.272;22.658;2022-10-16T10:30:01;95407.06;;;27.52;25.91
7480;BME280;3781;42.272;22.658;2022-10-16T10:32:34;95406.59;;;26.74;27.55
7480;BME280;3781;42.272;22.658;2022-10-16T10:35:14;95403.84;;;26.43;27.70
7480;BME280;3781;42.272;22.658;2022-10-16T10:40:42;95401.47;;;26.66;29.45
7480;BME280;3781;42.272;22.658;2022-10-16T10:43:19;95395.09;;;29.11;25.92
7480;BME280;3781;42.272;22.658;2022-10-16T10:45:52;95385.38;;;30.44;23.79
7480;BME280;3781;42.272;22.658;2022-10-16T10:48:45;95395.84;;;32.56;22.58
7480;BME280;3781;42.272;22.658;2022-10-16T10:51:19;95379.78;;;32.61;20.86
7480;BME280;3781;42.272;22.658;2022-10-16T10:53:56;95391.28;;;32.79;22.22
7480;BME280;3781;42.272;22.658;2022-10-16T10:56:46;95391.81;;;33.29;18.63
7480;BME280;3781;42.272;22.658;2022-10-16T10:59:38;95381.22;;;32.47;20.05
7480;BME280;3781;42.272;22.658;2022-10-16T11:02:15;95382.22;;;30.47;20.78
7480;BME280;3781;42.272;22.658;2022-10-16T11:04:59;95386.69;;;29.60;22.24
7480;BME280;3781;42.272;22.658;2022-10-16T11:07:31;95382.97;;;30.99;21.98
7480;BME280;3781;42.272;22.658;2022-10-16T11:10:03;95375.84;;;31.38;21.58
7480;BME280;3781;42.272;22.658;2022-10-16T11:12:34;95379.88;;;31.90;20.73
7480;BME280;3781;42.272;22.658;2022-10-16T11:15:07;95355.66;;;32.71;19.97
7480;BME280;3781;42.272;22.658;2022-10-16T11:17:39;95374.19;;;33.85;18.79
7480;BME280;3781;42.272;22.658;2022-10-16T11:20:14;95378.19;;;34.81;18.66
7480;BME280;3781;42.272;22.658;2022-10-16T11:22:47;95377.13;;;34.77;17.30
7480;BME280;3781;42.272;22.658;2022-10-16T11:25:18;95370.97;;;32.93;18.54
7480;BME280;3781;42.272;22.658;2022-10-16T11:27:50;95367.50;;;32.06;19.57
7480;BME280;3781;42.272;22.658;2022-10-16T11:30:22;95363.31;;;32.80;19.03
7480;BME280;3781;42.272;22.658;2022-10-16T11:32:56;95349.31;;;30.12;20.86
7480;BME280;3781;42.272;22.658;2022-10-16T11:35:28;95360.19;;;29.06;22.72
7480;BME280;3781;42.272;22.658;2022-10-16T11:38:01;95363.75;;;30.34;22.61
7480;BME280;3781;42.272;22.658;2022-10-16T11:40:32;95345.38;;;31.98;20.70
7480;BME280;3781;42.272;22.658;2022-10-16T11:43:04;95364.41;;;32.57;20.30
7480;BME280;3781;42.272;22.658;2022-10-16T11:45:40;95356.84;;;33.39;19.12
7480;BME280;3781;42.272;22.658;2022-10-16T11:48:17;95352.41;;;33.86;19.41
7480;BME280;3781;42.272;22.658;2022-10-16T11:50:50;95353.47;;;33.17;19.16
7480;BME280;3781;42.272;22.658;2022-10-16T11:53:35;95338.06;;;32.86;20.51
7480;BME280;3781;42.272;22.658;2022-10-16T11:56:05;95351.59;;;34.38;19.31
7480;BME280;3781;42.272;22.658;2022-10-16T11:58:36;95351.56;;;33.49;18.73
7480;BME280;3781;42.272;22.658;2022-10-16T12:01:18;95354.84;;;31.68;21.06
7480;BME280;3781;42.272;22.658;2022-10-16T12:03:55;95340.13;;;31.54;20.50
7480;BME280;3781;42.272;22.658;2022-10-16T12:06:31;95353.19;;;32.92;20.27
7480;BME280;3781;42.272;22.658;2022-10-16T12:09:00;95354.03;;;33.51;19.83
7480;BME280;3781;42.272;22.658;2022-10-16T12:11:34;95333.78;;;33.48;18.86
7480;BME280;3781;42.272;22.658;2022-10-16T12:14:06;95339.66;;;34.24;18.93
7480;BME280;3781;42.272;22.658;2022-10-16T12:16:37;95356.72;;;35.56;18.03
7480;BME280;3781;42.272;22.658;2022-10-16T12:19:13;95352.38;;;35.20;18.39
7480;BME280;3781;42.272;22.658;2022-10-16T12:21:40;95344.81;;;35.32;18.58
7480;BME280;3781;42.272;22.658;2022-10-16T12:24:21;95335.00;;;33.62;18.50
7480;BME280;3781;42.272;22.658;2022-10-16T12:26:49;95347.13;;;33.33;19.42
7480;BME280;3781;42.272;22.658;2022-10-16T12:29:26;95346.56;;;34.04;18.80
7480;BME280;3781;42.272;22.658;2022-10-16T12:31:56;95356.19;;;35.59;18.33
7480;BME280;3781;42.272;22.658;2022-10-16T12:34:27;95348.50;;;34.71;18.39
7480;BME280;3781;42.272;22.658;2022-10-16T12:36:55;95350.47;;;34.29;18.30
7480;BME280;3781;42.272;22.658;2022-10-16T12:39:33;95344.50;;;34.22;17.86
7480;BME280;3781;42.272;22.658;2022-10-16T12:42:04;95350.03;;;34.52;18.11
7480;BME280;3781;42.272;22.658;2022-10-16T12:44:35;95348.22;;;34.10;18.14
7480;BME280;3781;42.272;22.658;2022-10-16T12:47:03;95342.31;;;33.08;20.00
7480;BME280;3781;42.272;22.658;2022-10-16T12:49:36;95343.19;;;35.16;17.43
7480;BME280;3781;42.272;22.658;2022-10-16T12:52:03;95360.44;;;34.95;17.26
7480;BME280;3781;42.272;22.658;2022-10-16T12:54:35;95339.69;;;35.16;17.71
7480;BME280;3781;42.272;22.658;2022-10-16T12:57:24;95359.31;;;36.22;17.08
7480;BME280;3781;42.272;22.658;2022-10-16T12:59:58;95356.09;;;37.95;16.27
7480;BME280;3781;42.272;22.658;2022-10-16T13:02:49;95358.44;;;38.30;15.80
7480;BME280;3781;42.272;22.658;2022-10-16T13:05:27;95361.06;;;38.83;14.71
7480;BME280;3781;42.272;22.658;2022-10-16T13:08:05;95356.13;;;38.42;14.50
7480;BME280;3781;42.272;22.658;2022-10-16T13:10:40;95360.50;;;38.86;13.78
7480;BME280;3781;42.272;22.658;2022-10-16T13:13:34;95368.94;;;39.59;14.38
7480;BME280;3781;42.272;22.658;2022-10-16T13:16:14;95372.03;;;40.17;14.02
7480;BME280;3781;42.272;22.658;2022-10-16T13:18:55;95362.28;;;40.43;13.39
7480;BME280;3781;42.272;22.658;2022-10-16T13:21:35;95365.91;;;40.52;12.98
7480;BME280;3781;42.272;22.658;2022-10-16T13:24:12;95363.88;;;40.30;12.93
7480;BME280;3781;42.272;22.658;2022-10-16T13:26:49;95365.41;;;39.90;12.63
7480;BME280;3781;42.272;22.658;2022-10-16T13:29:19;95363.06;;;40.30;12.62
7480;BME280;3781;42.272;22.658;2022-10-16T13:31:46;95355.09;;;39.87;13.38
7480;BME280;3781;42.272;22.658;2022-10-16T13:34:17;95360.72;;;39.45;12.43
7480;BME280;3781;42.272;22.658;2022-10-16T13:36:47;95366.94;;;35.85;13.96
7480;BME280;3781;42.272;22.658;2022-10-16T13:39:21;95361.19;;;36.26;14.31
7480;BME280;3781;42.272;22.658;2022-10-16T13:41:58;95359.69;;;37.57;13.85
7480;BME280;3781;42.272;22.658;2022-10-16T13:44:30;95366.28;;;37.07;14.27
7480;BME280;3781;42.272;22.658;2022-10-16T13:47:02;95368.41;;;36.61;14.47
7480;BME280;3781;42.272;22.658;2022-10-16T13:49:30;95352.00;;;36.91;14.59
7480;BME280;3781;42.272;22.658;2022-10-16T13:51:58;95362.56;;;37.99;14.15
7480;BME280;3781;42.272;22.658;2022-10-16T13:54:27;95368.59;;;35.20;14.57
7480;BME280;3781;42.272;22.658;2022-10-16T13:56:55;95351.84;;;35.18;16.60